Terminal Aerodrome Forecast
Issued by NWS Twin Cities, MN

Home | Current Version | Previous Version | Text Only | Print | Product List | Glossary Off
Versions: 1 2 3 4 5 6 7 8 9 10 11 12 13 14 15 16 17 18 19 20 21 22 23 24 25 26 27 28

588
FTUS43 KMPX 212108 AAB
TAFMSP
TAF AMD
KMSP 212108Z 2121/2224 17018G30KT P6SM OVC020
     FM220000 17013G21KT P6SM -SHRA VCTS OVC025CB
     FM220200 22010KT P6SM SCT025 OVC050
     FM220600 27009KT P6SM BKN150
     FM221000 28009KT P6SM SKC=

USA.gov is the U.S. government's official web portal to all federal, state and local government web resources and services.